Time;durP1;ratioP1;P1;durP2;ratioP2;P2;SDS_P1;SDS_P2;PMS_P1;PMS_P2;Temp;Humidity;BMP_temperature;BMP_pressure;BME280_temperature;BME280_humidity;BME280_pressure;Samples;Min_cycle;Max_cycle;Signal;HPM_P1;HPM_P2
2023/07/25 00:01:27;;;;;;;3.70;2.80;;;;;;;;;;4940076;28;20429;-93
2023/07/25 00:03:53;;;;;;;4.03;2.60;;;;;;;;;;4951778;28;20422;-94
2023/07/25 00:06:19;;;;;;;4.10;2.67;;;;;;;;;;4949503;28;20473;-91
2023/07/25 00:08:45;;;;;;;3.97;3.57;;;;;;;;;;4950680;28;20457;-93
2023/07/25 00:11:14;;;;;;;5.10;2.83;;;;;;;;;;4950219;28;20430;-92
2023/07/25 00:13:40;;;;;;;6.37;4.10;;;;;;;;;;4952412;28;20437;-93
2023/07/25 00:16:06;;;;;;;3.30;2.40;;;;;;;;;;4954411;28;20445;-94
2023/07/25 00:18:32;;;;;;;3.30;2.53;;;;;;;;;;4951713;28;20418;-94
2023/07/25 00:20:58;;;;;;;3.60;2.80;;;;;;;;;;4956022;28;20790;-91
2023/07/25 00:23:24;;;;;;;5.30;2.93;;;;;;;;;;4970903;28;20500;-90
2023/07/25 00:25:50;;;;;;;4.87;3.30;;;;;;;;;;4962968;28;20485;-90
2023/07/25 00:28:16;;;;;;;4.10;2.67;;;;;;;;;;4951266;28;20418;-91
2023/07/25 00:30:42;;;;;;;5.60;3.00;;;;;;;;;;4951186;28;20422;-90
2023/07/25 00:33:08;;;;;;;4.87;3.43;;;;;;;;;;4950726;28;21012;-90
2023/07/25 00:35:34;;;;;;;5.97;3.00;;;;;;;;;;4973478;28;20433;-93
2023/07/25 00:38:00;;;;;;;4.07;2.80;;;;;;;;;;4954220;28;20461;-93
2023/07/25 00:40:27;;;;;;;5.80;2.63;;;;;;;;;;4947104;28;20422;-90
2023/07/25 00:42:54;;;;;;;4.13;2.90;;;;;;;;;;4953552;28;20437;-94
2023/07/25 00:45:20;;;;;;;3.03;2.30;;;;;;;;;;4953626;28;20469;-93
2023/07/25 00:47:50;;;;;;;5.10;3.00;;;;;;;;;;4948982;28;20430;-94
2023/07/25 00:50:16;;;;;;;4.67;3.70;;;;;;;;;;4950874;28;21114;-94
2023/07/25 00:52:42;;;;;;;5.10;3.37;;;;;;;;;;4948934;29;20419;-92
2023/07/25 00:55:08;;;;;;;4.57;3.50;;;;;;;;;;4953245;28;20474;-94
2023/07/25 00:57:34;;;;;;;4.20;3.10;;;;;;;;;;4952692;28;20429;-93
2023/07/25 01:00:01;;;;;;;8.60;2.90;;;;;;;;;;4951876;28;20434;-94
2023/07/25 01:02:26;;;;;;;4.57;2.80;;;;;;;;;;4953793;28;20437;-93
2023/07/25 01:04:52;;;;;;;4.00;2.77;;;;;;;;;;4949870;28;20848;-93
2023/07/25 01:07:18;;;;;;;3.63;2.60;;;;;;;;;;4962471;28;20469;-90
2023/07/25 01:09:46;;;;;;;5.50;2.70;;;;;;;;;;4951181;28;21031;-93
2023/07/25 01:12:12;;;;;;;3.47;2.60;;;;;;;;;;4955215;28;20468;-91
2023/07/25 01:14:38;;;;;;;6.00;3.57;;;;;;;;;;4950697;28;20418;-91
2023/07/25 01:17:17;;;;;;;3.83;2.23;;;;;;;;;;4951797;28;20434;-91
2023/07/25 01:19:44;;;;;;;4.07;2.90;;;;;;;;;;4947078;28;20421;-90
2023/07/25 01:22:10;;;;;;;4.63;3.20;;;;;;;;;;4952424;28;20469;-92
2023/07/25 01:24:37;;;;;;;3.87;2.50;;;;;;;;;;4949084;28;20563;-91
2023/07/25 01:27:03;;;;;;;4.53;3.33;;;;;;;;;;4950612;28;20472;-91
2023/07/25 01:29:29;;;;;;;4.80;3.27;;;;;;;;;;4948077;28;20422;-92
2023/07/25 01:31:55;;;;;;;4.67;3.17;;;;;;;;;;4946692;28;20439;-91
2023/07/25 01:34:21;;;;;;;4.83;2.40;;;;;;;;;;4950782;28;20444;-93
2023/07/25 01:36:47;;;;;;;3.60;3.07;;;;;;;;;;4951876;28;20436;-94
2023/07/25 01:39:13;;;;;;;4.70;3.30;;;;;;;;;;4968488;28;20410;-93
2023/07/25 01:41:40;;;;;;;4.37;3.83;;;;;;;;;;4945130;28;20841;-94
2023/07/25 01:44:06;;;;;;;3.90;3.40;;;;;;;;;;4983699;28;21188;-93
2023/07/25 01:46:32;;;;;;;3.83;2.57;;;;;;;;;;4949732;28;20454;-90
2023/07/25 01:48:58;;;;;;;4.37;3.03;;;;;;;;;;4946249;28;20454;-91
2023/07/25 01:51:25;;;;;;;5.33;3.67;;;;;;;;;;4947672;28;20418;-91
2023/07/25 01:53:53;;;;;;;3.57;2.67;;;;;;;;;;4967142;28;20925;-93
2023/07/25 01:56:19;;;;;;;5.40;2.83;;;;;;;;;;4948896;28;20441;-95
2023/07/25 01:58:45;;;;;;;3.73;2.63;;;;;;;;;;4952134;28;20425;-94
2023/07/25 02:01:11;;;;;;;5.67;3.40;;;;;;;;;;4955040;28;20461;-94
2023/07/25 02:03:37;;;;;;;5.33;2.83;;;;;;;;;;4954401;28;20413;-94
2023/07/25 02:06:04;;;;;;;4.03;2.87;;;;;;;;;;4950865;28;20457;-95
2023/07/25 02:08:30;;;;;;;4.50;3.00;;;;;;;;;;4950670;28;20437;-90
2023/07/25 02:10:56;;;;;;;3.80;2.67;;;;;;;;;;4960058;28;20465;-91
2023/07/25 02:13:22;;;;;;;3.33;3.00;;;;;;;;;;4946790;28;20429;-91
2023/07/25 02:15:48;;;;;;;3.67;2.93;;;;;;;;;;4952219;28;20574;-94
2023/07/25 02:18:14;;;;;;;3.70;2.87;;;;;;;;;;4966539;28;20501;-94
2023/07/25 02:20:40;;;;;;;5.00;2.60;;;;;;;;;;4952404;28;20446;-93
2023/07/25 02:23:06;;;;;;;4.63;3.00;;;;;;;;;;4952539;28;20489;-90
2023/07/25 02:25:32;;;;;;;5.13;2.97;;;;;;;;;;4947152;28;20450;-92
2023/07/25 02:27:58;;;;;;;6.67;2.93;;;;;;;;;;4949411;28;20485;-91
2023/07/25 02:30:24;;;;;;;4.10;2.30;;;;;;;;;;4917858;29;20429;-90
2023/07/25 02:32:50;;;;;;;4.50;3.33;;;;;;;;;;4893182;29;20475;-91
2023/07/25 02:35:16;;;;;;;3.97;3.27;;;;;;;;;;4894853;29;20437;-95
2023/07/25 02:37:42;;;;;;;6.43;2.40;;;;;;;;;;4900367;28;20436;-93
2023/07/25 02:40:08;;;;;;;4.70;3.10;;;;;;;;;;4897112;29;20455;-93
2023/07/25 02:42:34;;;;;;;5.00;3.20;;;;;;;;;;4903099;29;20433;-95
2023/07/25 02:45:00;;;;;;;6.00;2.70;;;;;;;;;;4903018;29;20983;-94
2023/07/25 02:47:26;;;;;;;3.30;2.77;;;;;;;;;;4919097;29;20491;-94
2023/07/25 02:49:52;;;;;;;3.90;2.53;;;;;;;;;;4915819;29;20460;-94
2023/07/25 02:52:18;;;;;;;4.67;2.93;;;;;;;;;;4903218;29;20420;-93
2023/07/25 02:54:44;;;;;;;3.47;2.50;;;;;;;;;;4899098;29;20456;-94
2023/07/25 02:57:11;;;;;;;7.57;3.77;;;;;;;;;;4904068;29;20455;-94
2023/07/25 02:59:37;;;;;;;4.63;3.30;;;;;;;;;;4897625;29;20464;-93
2023/07/25 03:02:04;;;;;;;4.90;3.53;;;;;;;;;;4938268;28;20956;-92
2023/07/25 03:04:30;;;;;;;4.73;2.50;;;;;;;;;;4972367;28;20417;-91
2023/07/25 03:06:56;;;;;;;5.50;3.57;;;;;;;;;;4946656;28;20472;-91
2023/07/25 03:09:22;;;;;;;4.20;3.10;;;;;;;;;;4947906;28;20418;-91
2023/07/25 03:11:48;;;;;;;4.87;3.70;;;;;;;;;;4948040;28;20879;-91
2023/07/25 03:14:15;;;;;;;4.40;3.03;;;;;;;;;;4949199;28;20458;-91
2023/07/25 03:16:41;;;;;;;7.90;3.50;;;;;;;;;;4966116;28;20461;-91
2023/07/25 03:19:07;;;;;;;5.23;3.30;;;;;;;;;;4947183;28;20441;-91
2023/07/25 03:21:33;;;;;;;5.60;3.37;;;;;;;;;;4946109;28;20437;-91
2023/07/25 03:23:59;;;;;;;3.33;2.97;;;;;;;;;;4965973;28;20436;-91
2023/07/25 03:26:25;;;;;;;5.57;3.40;;;;;;;;;;4949515;28;20544;-91
2023/07/25 03:28:50;;;;;;;5.50;3.57;;;;;;;;;;4955969;28;20432;-92
2023/07/25 03:31:16;;;;;;;4.60;3.33;;;;;;;;;;4947446;28;20438;-92
2023/07/25 03:33:46;;;;;;;4.60;3.70;;;;;;;;;;4947352;28;20984;-92
2023/07/25 03:36:12;;;;;;;6.13;3.60;;;;;;;;;;4970770;28;20478;-92
2023/07/25 03:38:39;;;;;;;4.37;3.13;;;;;;;;;;4951403;28;20426;-91
2023/07/25 03:41:06;;;;;;;4.50;3.67;;;;;;;;;;4949070;28;20484;-93
2023/07/25 03:43:32;;;;;;;4.73;2.43;;;;;;;;;;4943824;29;20442;-92
2023/07/25 03:45:58;;;;;;;6.77;3.07;;;;;;;;;;4939194;28;20832;-92
2023/07/25 03:48:24;;;;;;;4.27;2.90;;;;;;;;;;4950455;28;20457;-92
2023/07/25 03:50:50;;;;;;;3.73;3.33;;;;;;;;;;4944507;28;20431;-92
2023/07/25 03:53:16;;;;;;;3.43;2.77;;;;;;;;;;4949210;29;20442;-93
2023/07/25 03:55:42;;;;;;;4.37;3.57;;;;;;;;;;4951667;28;20969;-93
2023/07/25 03:58:08;;;;;;;4.30;3.00;;;;;;;;;;4954445;28;20413;-93
2023/07/25 04:00:34;;;;;;;5.60;3.80;;;;;;;;;;4954037;28;20416;-92
2023/07/25 04:03:00;;;;;;;6.53;3.60;;;;;;;;;;4955162;28;20785;-93
2023/07/25 04:05:26;;;;;;;4.87;3.03;;;;;;;;;;4951946;28;20467;-93
2023/07/25 04:07:52;;;;;;;4.63;3.40;;;;;;;;;;4954488;28;20429;-93
2023/07/25 04:10:18;;;;;;;3.40;3.07;;;;;;;;;;4955310;28;20480;-93
2023/07/25 04:12:44;;;;;;;3.60;2.97;;;;;;;;;;4952741;28;20437;-93
2023/07/25 04:15:11;;;;;;;4.20;3.00;;;;;;;;;;4952669;28;20436;-93
2023/07/25 04:17:37;;;;;;;3.97;2.93;;;;;;;;;;4954414;28;20504;-93
2023/07/25 04:20:03;;;;;;;4.97;3.00;;;;;;;;;;4952635;28;20434;-94
2023/07/25 04:22:29;;;;;;;5.60;3.50;;;;;;;;;;4972856;28;20824;-93
2023/07/25 04:24:55;;;;;;;3.80;3.10;;;;;;;;;;4955415;28;20497;-93
2023/07/25 04:27:21;;;;;;;4.17;3.13;;;;;;;;;;4972192;28;20503;-94
2023/07/25 05:52:58;;;;;;;7.90;4.20;;;;;;;;;;4980237;28;20507;-88
2023/07/25 05:55:24;;;;;;;4.53;3.33;;;;;;;;;;4969973;28;20437;-90
2023/07/25 05:57:50;;;;;;;3.87;2.80;;;;;;;;;;4953223;28;20461;-88
2023/07/25 06:00:17;;;;;;;4.77;3.43;;;;;;;;;;4965447;28;20414;-90
2023/07/25 06:02:43;;;;;;;5.63;3.50;;;;;;;;;;4967860;28;20551;-89
2023/07/25 06:05:09;;;;;;;4.87;3.17;;;;;;;;;;4956021;28;20453;-90
2023/07/25 06:07:35;;;;;;;8.33;3.20;;;;;;;;;;4953277;28;20425;-88
2023/07/25 06:10:01;;;;;;;4.17;3.67;;;;;;;;;;4949229;28;20965;-89
2023/07/25 06:12:27;;;;;;;4.83;3.83;;;;;;;;;;4951887;28;20437;-89
2023/07/25 06:14:53;;;;;;;6.33;3.70;;;;;;;;;;4951724;28;20430;-90
2023/07/25 06:17:19;;;;;;;4.87;4.33;;;;;;;;;;4949608;28;20414;-92
2023/07/25 06:19:45;;;;;;;3.93;3.20;;;;;;;;;;4959766;28;20459;-89
2023/07/25 06:22:11;;;;;;;5.17;3.40;;;;;;;;;;4949377;28;20487;-90
2023/07/25 06:24:38;;;;;;;4.50;3.63;;;;;;;;;;4984944;28;20405;-90
2023/07/25 06:27:04;;;;;;;5.10;3.40;;;;;;;;;;4952255;28;20470;-91
2023/07/25 06:29:33;;;;;;;6.70;4.47;;;;;;;;;;4951151;28;20422;-91
2023/07/25 06:31:59;;;;;;;5.27;3.20;;;;;;;;;;4953527;29;20427;-94
2023/07/25 06:34:25;;;;;;;5.40;4.50;;;;;;;;;;4952719;28;20445;-90
2023/07/25 06:36:54;;;;;;;4.83;4.33;;;;;;;;;;4960000;28;20540;-89
2023/07/25 06:39:20;;;;;;;4.90;3.00;;;;;;;;;;4957021;28;20993;-91
2023/07/25 06:41:57;;;;;;;5.20;3.97;;;;;;;;;;4958828;28;20476;-93
2023/07/25 06:44:23;;;;;;;5.83;3.30;;;;;;;;;;4950322;28;20613;-93
2023/07/25 06:46:49;;;;;;;6.40;3.70;;;;;;;;;;4953855;28;20477;-93
2023/07/25 06:49:15;;;;;;;7.23;3.93;;;;;;;;;;4952621;28;20514;-89
2023/07/25 06:51:42;;;;;;;5.40;3.97;;;;;;;;;;4952883;28;20491;-94
2023/07/25 06:54:11;;;;;;;7.13;3.77;;;;;;;;;;4961898;28;20450;-93
2023/07/25 06:56:37;;;;;;;6.90;4.50;;;;;;;;;;4951759;28;20437;-95
2023/07/25 06:59:12;;;;;;;5.27;3.90;;;;;;;;;;4957693;28;20437;-94
2023/07/25 07:01:38;;;;;;;5.63;3.93;;;;;;;;;;4956977;28;20465;-93
2023/07/25 07:30:39;;;;;;;4.30;3.23;;;;;;;;;;4984812;26;20480;-90
2023/07/25 07:33:05;;;;;;;4.20;3.07;;;;;;;;;;4978667;28;20467;-89
2023/07/25 07:35:34;;;;;;;6.27;3.47;;;;;;;;;;4975433;28;20484;-90
2023/07/25 07:38:00;;;;;;;4.60;3.30;;;;;;;;;;4975348;28;20856;-91
2023/07/25 07:40:26;;;;;;;4.73;3.00;;;;;;;;;;4973705;28;20836;-92
2023/07/25 07:42:52;;;;;;;3.63;3.00;;;;;;;;;;4984231;28;20680;-92
2023/07/25 07:45:18;;;;;;;2.80;2.30;;;;;;;;;;4975344;28;20475;-92
2023/07/25 07:47:44;;;;;;;9.13;2.67;;;;;;;;;;4979647;28;20401;-92
2023/07/25 07:50:10;;;;;;;2.90;2.40;;;;;;;;;;4972173;28;20459;-90
2023/07/25 07:52:40;;;;;;;3.37;2.57;;;;;;;;;;4982183;28;20436;-88
2023/07/25 07:55:07;;;;;;;3.50;2.50;;;;;;;;;;4974714;28;20424;-89
2023/07/25 07:57:33;;;;;;;3.97;2.10;;;;;;;;;;4980526;28;20500;-93
2023/07/25 08:00:00;;;;;;;3.07;1.87;;;;;;;;;;4981519;28;20444;-92
2023/07/25 08:02:26;;;;;;;2.97;1.60;;;;;;;;;;4977529;28;20501;-91
2023/07/25 08:04:52;;;;;;;2.87;2.17;;;;;;;;;;4973541;28;20425;-90
2023/07/25 08:07:18;;;;;;;2.13;1.60;;;;;;;;;;4977716;28;20465;-91
2023/07/25 08:09:44;;;;;;;4.50;1.80;;;;;;;;;;4974548;28;20419;-92
2023/07/25 08:12:10;;;;;;;3.10;2.10;;;;;;;;;;4976617;28;20450;-90
2023/07/25 08:14:36;;;;;;;4.47;2.13;;;;;;;;;;4975699;28;20946;-91
2023/07/25 08:17:03;;;;;;;3.37;2.07;;;;;;;;;;4977917;28;20424;-91
2023/07/25 08:19:30;;;;;;;7.43;2.83;;;;;;;;;;4975379;28;20669;-92
2023/07/25 08:21:56;;;;;;;3.23;2.43;;;;;;;;;;4974554;28;20432;-91
2023/07/25 08:24:22;;;;;;;2.93;2.20;;;;;;;;;;4993195;28;20451;-93
2023/07/25 08:26:48;;;;;;;3.70;1.77;;;;;;;;;;4985074;28;20471;-91
2023/07/25 08:29:14;;;;;;;5.10;1.73;;;;;;;;;;4979277;28;20441;-91
2023/07/25 08:31:41;;;;;;;4.23;2.10;;;;;;;;;;4974308;28;20419;-92
2023/07/25 08:34:07;;;;;;;3.70;2.37;;;;;;;;;;4950286;29;20423;-91
2023/07/25 08:36:33;;;;;;;3.60;2.40;;;;;;;;;;4930656;29;20439;-91
2023/07/25 08:38:59;;;;;;;7.93;2.50;;;;;;;;;;4959765;28;20435;-90
2023/07/25 08:41:26;;;;;;;3.30;2.27;;;;;;;;;;4945480;29;20427;-91
2023/07/25 08:43:55;;;;;;;4.33;2.30;;;;;;;;;;4936812;29;20415;-91
2023/07/25 08:46:21;;;;;;;3.20;2.23;;;;;;;;;;4937439;29;20451;-91
2023/07/25 08:48:47;;;;;;;5.03;3.10;;;;;;;;;;4937547;29;20466;-91
2023/07/25 08:51:14;;;;;;;3.87;2.40;;;;;;;;;;4933741;29;20441;-92
2023/07/25 08:53:42;;;;;;;4.27;2.23;;;;;;;;;;4953132;29;20826;-93
2023/07/25 08:56:08;;;;;;;4.43;2.33;;;;;;;;;;4942167;29;20458;-93
2023/07/25 08:58:34;;;;;;;3.50;3.20;;;;;;;;;;4935536;29;20514;-92
2023/07/25 09:01:00;;;;;;;3.13;2.17;;;;;;;;;;4951039;29;20407;-94
2023/07/25 09:03:26;;;;;;;5.53;2.17;;;;;;;;;;4952097;29;20899;-93
2023/07/25 09:05:52;;;;;;;8.63;2.40;;;;;;;;;;4970133;28;20484;-92
2023/07/25 09:08:18;;;;;;;5.93;2.20;;;;;;;;;;4976881;28;20439;-93
2023/07/25 09:10:45;;;;;;;3.60;2.40;;;;;;;;;;4979805;28;20420;-92
2023/07/25 09:13:11;;;;;;;3.13;1.77;;;;;;;;;;4976054;28;20434;-94
2023/07/25 09:15:39;;;;;;;2.80;2.17;;;;;;;;;;4969513;29;20515;-93
2023/07/25 09:18:05;;;;;;;2.57;1.77;;;;;;;;;;4966131;28;20453;-91
2023/07/25 09:20:31;;;;;;;3.87;2.07;;;;;;;;;;4973928;28;20965;-92
2023/07/25 09:22:57;;;;;;;2.90;2.10;;;;;;;;;;4956895;28;20427;-91
2023/07/25 09:25:23;;;;;;;3.20;1.13;;;;;;;;;;4956017;28;20526;-93
2023/07/25 09:27:49;;;;;;;2.40;1.63;;;;;;;;;;4973955;28;20489;-93
2023/07/25 09:30:15;;;;;;;2.40;1.80;;;;;;;;;;4969706;28;20458;-93
2023/07/25 09:32:45;;;;;;;3.07;2.00;;;;;;;;;;4953421;28;20905;-93
2023/07/25 09:35:11;;;;;;;4.30;1.87;;;;;;;;;;4971229;28;20625;-93
2023/07/25 09:37:37;;;;;;;3.03;1.90;;;;;;;;;;4973217;28;20434;-93
2023/07/25 09:40:12;;;;;;;4.70;1.50;;;;;;;;;;4973883;28;20489;-92
2023/07/25 09:42:41;;;;;;;3.40;1.90;;;;;;;;;;4960368;28;20924;-93
2023/07/25 09:45:08;;;;;;;5.00;1.73;;;;;;;;;;4970066;28;20416;-93
2023/07/25 09:47:35;;;;;;;4.80;2.93;;;;;;;;;;4974775;28;20460;-93
2023/07/25 09:50:01;;;;;;;6.00;2.03;;;;;;;;;;4968124;28;20433;-92
2023/07/25 09:52:27;;;;;;;3.10;1.80;;;;;;;;;;4987455;28;20425;-92
2023/07/25 09:54:53;;;;;;;5.63;1.70;;;;;;;;;;4983300;28;20422;-92
2023/07/25 09:57:19;;;;;;;5.10;2.00;;;;;;;;;;4970321;28;20414;-92
2023/07/25 09:59:45;;;;;;;2.93;2.03;;;;;;;;;;4969544;28;20429;-93
2023/07/25 10:02:11;;;;;;;3.00;1.90;;;;;;;;;;4970168;28;20421;-91
2023/07/25 10:04:37;;;;;;;4.50;1.83;;;;;;;;;;4971097;28;20415;-92
2023/07/25 10:07:03;;;;;;;2.47;2.00;;;;;;;;;;4973624;28;20465;-92
2023/07/25 10:09:31;;;;;;;3.17;1.90;;;;;;;;;;4973296;28;20455;-93
2023/07/25 10:11:57;;;;;;;4.43;2.13;;;;;;;;;;4969973;28;20449;-93
2023/07/25 10:14:24;;;;;;;3.73;1.87;;;;;;;;;;4975317;28;20421;-93
2023/07/25 10:16:50;;;;;;;3.00;1.77;;;;;;;;;;4968122;28;20933;-92
2023/07/25 10:19:16;;;;;;;2.40;1.80;;;;;;;;;;4952945;28;20454;-92
2023/07/25 10:21:46;;;;;;;2.60;1.53;;;;;;;;;;4958989;28;20489;-92
2023/07/25 10:24:13;;;;;;;2.40;1.80;;;;;;;;;;4942182;29;20515;-92
2023/07/25 10:26:58;;;;;;;2.93;1.90;;;;;;;;;;4940516;29;20482;-93
2023/07/25 10:29:42;;;;;;;3.20;2.00;;;;;;;;;;4927633;29;20452;-92
2023/07/25 10:32:09;;;;;;;1.80;1.17;;;;;;;;;;4923766;29;20444;-91
2023/07/25 10:34:45;;;;;;;4.00;1.90;;;;;;;;;;4923502;29;20438;-92
2023/07/25 10:37:20;;;;;;;2.43;1.60;;;;;;;;;;4932628;29;20423;-91
2023/07/25 10:39:46;;;;;;;2.60;1.60;;;;;;;;;;4931968;29;20458;-91
2023/07/25 10:42:18;;;;;;;3.27;1.60;;;;;;;;;;4931297;29;20416;-92
2023/07/25 10:44:44;;;;;;;2.13;1.40;;;;;;;;;;4930499;29;20510;-92
2023/07/25 10:47:28;;;;;;;2.37;1.47;;;;;;;;;;4931257;29;20463;-92
2023/07/25 10:49:55;;;;;;;4.23;1.47;;;;;;;;;;4945331;29;20407;-93
2023/07/25 10:52:40;;;;;;;3.50;1.57;;;;;;;;;;4931175;29;20439;-92
2023/07/25 10:55:06;;;;;;;2.77;1.77;;;;;;;;;;4974081;28;20443;-92
2023/07/25 10:57:32;;;;;;;3.67;1.70;;;;;;;;;;4968943;28;20438;-92
2023/07/25 11:00:03;;;;;;;2.77;1.73;;;;;;;;;;4974245;28;20428;-91
2023/07/25 11:02:30;;;;;;;3.07;1.60;;;;;;;;;;4991221;28;20420;-92
2023/07/25 11:05:14;;;;;;;2.00;1.40;;;;;;;;;;4970383;28;20836;-93
2023/07/25 11:07:46;;;;;;;4.17;1.80;;;;;;;;;;4984387;28;20495;-92
2023/07/25 11:10:18;;;;;;;2.90;1.80;;;;;;;;;;4989501;28;21252;-92
2023/07/25 11:12:46;;;;;;;2.60;1.73;;;;;;;;;;4972425;28;20456;-92
2023/07/25 11:15:12;;;;;;;3.70;1.67;;;;;;;;;;4986233;28;20586;-92
2023/07/25 11:17:38;;;;;;;2.30;1.00;;;;;;;;;;4971022;28;20420;-93
2023/07/25 11:20:11;;;;;;;1.90;1.30;;;;;;;;;;4948208;29;20427;-92
2023/07/25 11:22:37;;;;;;;2.00;1.60;;;;;;;;;;4930497;29;21139;-93
2023/07/25 11:25:06;;;;;;;2.47;1.50;;;;;;;;;;4931867;29;20430;-91
2023/07/25 11:27:32;;;;;;;1.90;1.37;;;;;;;;;;4946216;29;20453;-93
2023/07/25 11:30:13;;;;;;;2.53;1.57;;;;;;;;;;4948874;29;20526;-92
2023/07/25 11:32:39;;;;;;;3.20;1.50;;;;;;;;;;4946749;29;20419;-93
2023/07/25 11:35:06;;;;;;;2.07;1.23;;;;;;;;;;4948616;29;20446;-92
2023/07/25 11:37:34;;;;;;;1.70;1.00;;;;;;;;;;4939588;28;20410;-90
2023/07/25 11:40:13;;;;;;;1.70;0.83;;;;;;;;;;4971987;28;20421;-91
2023/07/25 11:42:40;;;;;;;2.40;1.20;;;;;;;;;;4951466;28;20429;-92
2023/07/25 11:45:06;;;;;;;2.00;1.20;;;;;;;;;;4949777;29;20507;-91
2023/07/25 11:47:32;;;;;;;4.40;1.70;;;;;;;;;;4947587;29;20625;-91
2023/07/25 11:49:58;;;;;;;6.10;1.43;;;;;;;;;;4930839;28;20427;-91
2023/07/25 11:52:24;;;;;;;2.27;0.97;;;;;;;;;;4971113;28;20525;-90
2023/07/25 11:54:50;;;;;;;2.60;1.47;;;;;;;;;;4981908;28;20423;-90
2023/07/25 11:57:16;;;;;;;2.63;1.20;;;;;;;;;;4961687;28;20433;-92
2023/07/25 11:59:42;;;;;;;2.90;1.20;;;;;;;;;;4973191;28;20464;-92
2023/07/25 12:02:08;;;;;;;2.30;1.30;;;;;;;;;;5007415;28;20417;-92
2023/07/25 12:04:44;;;;;;;2.10;1.40;;;;;;;;;;4998375;28;20437;-92
2023/07/25 12:07:15;;;;;;;2.60;1.20;;;;;;;;;;4976951;28;20455;-96
2023/07/25 12:09:51;;;;;;;2.37;1.07;;;;;;;;;;4978774;28;21020;-95
2023/07/25 12:12:18;;;;;;;1.70;0.90;;;;;;;;;;4972656;28;20465;-94
2023/07/25 12:15:02;;;;;;;1.90;1.13;;;;;;;;;;4974769;28;20437;-92
2023/07/25 12:17:41;;;;;;;2.37;1.03;;;;;;;;;;4980296;28;20444;-92
2023/07/25 12:20:20;;;;;;;1.93;1.27;;;;;;;;;;4977455;28;20417;-93
2023/07/25 12:22:47;;;;;;;5.80;1.57;;;;;;;;;;4978999;28;20447;-95
2023/07/25 12:25:20;;;;;;;2.30;1.13;;;;;;;;;;5012433;28;20693;-93
2023/07/25 12:27:46;;;;;;;2.37;1.07;;;;;;;;;;4976669;28;20496;-94
2023/07/25 12:30:12;;;;;;;2.83;1.50;;;;;;;;;;5091090;23;20556;-94
2023/07/25 12:32:38;;;;;;;6.67;1.70;;;;;;;;;;5048266;23;20562;-94
2023/07/25 12:35:04;;;;;;;2.73;1.60;;;;;;;;;;4957335;28;20478;-92
2023/07/25 12:37:31;;;;;;;2.00;1.07;;;;;;;;;;4960764;28;20410;-94
2023/07/25 12:40:04;;;;;;;1.87;1.07;;;;;;;;;;4962990;28;20475;-95
2023/07/25 12:42:30;;;;;;;1.70;1.10;;;;;;;;;;4958805;28;20434;-93
2023/07/25 12:45:01;;;;;;;3.30;1.40;;;;;;;;;;4955471;28;20444;-92
2023/07/25 12:47:27;;;;;;;2.43;1.77;;;;;;;;;;4958480;28;20454;-85
2023/07/25 12:49:53;;;;;;;1.70;1.03;;;;;;;;;;4972278;28;20485;-91
2023/07/25 12:52:21;;;;;;;3.10;1.00;;;;;;;;;;4952465;28;20423;-94
2023/07/25 12:54:48;;;;;;;2.20;1.17;;;;;;;;;;4968159;28;20435;-91
2023/07/25 12:57:17;;;;;;;1.47;0.93;;;;;;;;;;4959267;28;20432;-94
2023/07/25 12:59:43;;;;;;;2.20;1.30;;;;;;;;;;4927307;29;20437;-92
2023/07/25 13:02:09;;;;;;;1.70;1.30;;;;;;;;;;4897724;29;20500;-93
2023/07/25 13:04:37;;;;;;;2.00;1.20;;;;;;;;;;4899368;29;20424;-93
2023/07/25 13:07:05;;;;;;;1.73;1.20;;;;;;;;;;4900192;29;20503;-93
2023/07/25 13:09:34;;;;;;;1.60;1.00;;;;;;;;;;4893252;29;20426;-94
2023/07/25 13:12:00;;;;;;;1.83;0.97;;;;;;;;;;4844395;29;20451;-93
2023/07/25 13:14:27;;;;;;;2.03;1.13;;;;;;;;;;4875142;29;20981;-93
2023/07/25 13:16:53;;;;;;;1.43;0.80;;;;;;;;;;4875950;29;20522;-95
2023/07/25 13:19:19;;;;;;;1.60;1.30;;;;;;;;;;4884668;29;20415;-94
2023/07/25 13:21:45;;;;;;;1.73;1.43;;;;;;;;;;4876159;29;20427;-92
2023/07/25 13:24:12;;;;;;;1.70;1.10;;;;;;;;;;4877221;29;20423;-93
2023/07/25 13:26:38;;;;;;;2.83;1.17;;;;;;;;;;4877402;29;20500;-93
2023/07/25 13:29:05;;;;;;;2.50;1.50;;;;;;;;;;4841341;29;20456;-95
2023/07/25 13:31:43;;;;;;;1.50;1.00;;;;;;;;;;4838270;29;20502;-94
2023/07/25 13:34:09;;;;;;;1.67;1.00;;;;;;;;;;4844722;29;20451;-93
2023/07/25 13:36:35;;;;;;;2.20;1.50;;;;;;;;;;4842087;29;20471;-92
2023/07/25 13:39:01;;;;;;;2.73;1.90;;;;;;;;;;4841553;29;20428;-93
2023/07/25 13:41:29;;;;;;;2.63;1.70;;;;;;;;;;4842298;29;20414;-92
2023/07/25 13:43:55;;;;;;;2.30;1.23;;;;;;;;;;4804805;29;20482;-92
2023/07/25 13:46:21;;;;;;;2.87;1.83;;;;;;;;;;4799835;29;20456;-90
2023/07/25 13:48:47;;;;;;;2.20;1.90;;;;;;;;;;4795749;29;20472;-91
2023/07/25 13:51:13;;;;;;;2.20;1.77;;;;;;;;;;4813975;29;20927;-91
2023/07/25 13:53:39;;;;;;;2.83;1.90;;;;;;;;;;4826098;29;20506;-90
2023/07/25 13:56:05;;;;;;;3.80;2.23;;;;;;;;;;4842366;29;20424;-91
2023/07/25 13:58:31;;;;;;;2.23;1.80;;;;;;;;;;4844449;29;20442;-91
2023/07/25 14:00:57;;;;;;;1.87;1.33;;;;;;;;;;4887579;29;20928;-91
2023/07/25 14:03:23;;;;;;;2.10;1.70;;;;;;;;;;4913541;29;20437;-91
2023/07/25 14:05:49;;;;;;;2.43;1.60;;;;;;;;;;4906031;29;20454;-92
2023/07/25 14:08:15;;;;;;;2.47;1.50;;;;;;;;;;4886152;29;20424;-90
2023/07/25 14:10:42;;;;;;;1.90;1.70;;;;;;;;;;4888926;29;20960;-90
2023/07/25 14:13:08;;;;;;;1.63;1.50;;;;;;;;;;4894126;29;20471;-91
2023/07/25 14:15:34;;;;;;;2.07;1.57;;;;;;;;;;4943095;28;20441;-89
2023/07/25 14:18:00;;;;;;;1.77;1.13;;;;;;;;;;4954582;29;20430;-91
2023/07/25 14:20:27;;;;;;;1.80;1.10;;;;;;;;;;4948665;28;20418;-90
2023/07/25 14:22:53;;;;;;;1.80;1.47;;;;;;;;;;4950982;29;20459;-91
2023/07/25 14:25:18;;;;;;;1.43;1.00;;;;;;;;;;4954085;28;20425;-90
2023/07/25 14:27:48;;;;;;;1.30;0.80;;;;;;;;;;4955087;28;20453;-91
2023/07/25 14:30:14;;;;;;;1.43;1.17;;;;;;;;;;4955134;29;20426;-92
2023/07/25 14:32:40;;;;;;;2.23;1.30;;;;;;;;;;4957762;29;20445;-91
2023/07/25 14:35:07;;;;;;;1.60;1.00;;;;;;;;;;4959705;29;20451;-92
2023/07/25 14:37:33;;;;;;;1.27;0.97;;;;;;;;;;4917367;29;20461;-91
2023/07/25 14:39:59;;;;;;;1.80;1.30;;;;;;;;;;4940982;29;20445;-91
2023/07/25 14:42:25;;;;;;;1.67;1.23;;;;;;;;;;4917530;29;20444;-91
2023/07/25 14:44:51;;;;;;;1.90;1.20;;;;;;;;;;4918553;29;20448;-90
2023/07/25 14:47:17;;;;;;;2.50;1.60;;;;;;;;;;4918239;29;20483;-92
2023/07/25 14:49:43;;;;;;;3.00;1.50;;;;;;;;;;4920481;29;20423;-92
2023/07/25 14:52:09;;;;;;;2.60;1.60;;;;;;;;;;4920068;29;20427;-93
2023/07/25 14:54:35;;;;;;;2.57;1.70;;;;;;;;;;4925793;29;20535;-92
2023/07/25 14:57:02;;;;;;;1.93;1.23;;;;;;;;;;4923418;29;20443;-92
2023/07/25 14:59:28;;;;;;;5.70;2.07;;;;;;;;;;4917601;29;20424;-92
2023/07/25 15:01:54;;;;;;;1.83;1.30;;;;;;;;;;4917923;29;20492;-91
2023/07/25 15:04:20;;;;;;;2.10;1.20;;;;;;;;;;4947808;23;20510;-93
2023/07/25 15:06:46;;;;;;;5.13;2.07;;;;;;;;;;4960260;28;20528;-91
2023/07/25 15:09:12;;;;;;;2.07;1.63;;;;;;;;;;4975333;28;20434;-90
2023/07/25 15:11:38;;;;;;;2.03;1.30;;;;;;;;;;4954752;28;20446;-91
2023/07/25 15:14:04;;;;;;;2.03;1.30;;;;;;;;;;4955685;28;21105;-91
2023/07/25 15:16:30;;;;;;;3.47;1.50;;;;;;;;;;4954387;28;20434;-90
2023/07/25 15:18:56;;;;;;;2.00;1.37;;;;;;;;;;4952286;28;20456;-91
2023/07/25 15:21:27;;;;;;;3.10;1.60;;;;;;;;;;4965515;28;21002;-90
2023/07/25 15:23:53;;;;;;;2.80;1.87;;;;;;;;;;4970733;28;20422;-90
2023/07/25 15:26:19;;;;;;;4.30;2.33;;;;;;;;;;4951220;28;22033;-91
2023/07/25 15:28:45;;;;;;;5.17;1.93;;;;;;;;;;4954111;28;20433;-90
2023/07/25 15:31:11;;;;;;;1.97;1.37;;;;;;;;;;4951433;28;20422;-91
2023/07/25 15:33:38;;;;;;;2.10;1.60;;;;;;;;;;4940567;29;20530;-90
2023/07/25 15:36:04;;;;;;;2.27;1.87;;;;;;;;;;4944276;29;20438;-91
2023/07/25 15:38:31;;;;;;;3.10;2.10;;;;;;;;;;4942219;28;20433;-90
2023/07/25 15:40:57;;;;;;;3.43;3.07;;;;;;;;;;4959215;28;20446;-90
2023/07/25 15:43:23;;;;;;;4.90;1.80;;;;;;;;;;4949435;28;20435;-85
2023/07/25 15:45:49;;;;;;;1.70;1.40;;;;;;;;;;4953111;28;20586;-92
2023/07/25 15:48:15;;;;;;;2.30;1.50;;;;;;;;;;4952618;28;20470;-91
2023/07/25 15:50:41;;;;;;;2.30;1.97;;;;;;;;;;4954788;28;20496;-91
2023/07/25 15:53:07;;;;;;;5.70;3.83;;;;;;;;;;4977493;28;20831;-91
2023/07/25 15:55:34;;;;;;;3.37;2.83;;;;;;;;;;4968148;28;20425;-92
2023/07/25 15:58:02;;;;;;;13.90;5.83;;;;;;;;;;4973737;28;20440;-92
2023/07/25 16:00:32;;;;;;;3.87;2.53;;;;;;;;;;4969873;28;20433;-92
2023/07/25 16:02:58;;;;;;;2.43;1.70;;;;;;;;;;4950676;28;20441;-93
2023/07/25 16:05:24;;;;;;;6.43;1.80;;;;;;;;;;4953796;28;20572;-90
2023/07/25 16:07:50;;;;;;;3.40;1.73;;;;;;;;;;4955194;28;20462;-92
2023/07/25 16:10:16;;;;;;;3.10;1.53;;;;;;;;;;4936992;29;20534;-92
2023/07/25 16:12:42;;;;;;;2.40;1.87;;;;;;;;;;4922097;29;20467;-91
2023/07/25 16:15:08;;;;;;;4.67;1.90;;;;;;;;;;4937765;29;20499;-92
2023/07/25 16:17:34;;;;;;;5.07;3.10;;;;;;;;;;4909526;29;20427;-93
2023/07/25 16:20:00;;;;;;;2.60;2.17;;;;;;;;;;4915171;29;20467;-93
2023/07/25 16:22:26;;;;;;;2.93;2.17;;;;;;;;;;4917408;29;20470;-93
2023/07/25 16:24:53;;;;;;;3.40;2.17;;;;;;;;;;4916541;29;21009;-92
2023/07/25 16:27:22;;;;;;;2.37;1.60;;;;;;;;;;4945617;29;20471;-90
2023/07/25 16:29:48;;;;;;;2.43;1.47;;;;;;;;;;4922396;29;20439;-93
2023/07/25 16:32:14;;;;;;;2.40;1.53;;;;;;;;;;4939774;29;20410;-93